createdAt,value
2023-04-02T00:01:01.348Z,100121.00
2023-04-02T00:03:43.892Z,100130.00
2023-04-02T00:06:34.205Z,100127.00
2023-04-02T00:09:04.602Z,100131.00
2023-04-02T00:11:37.386Z,100129.00
2023-04-02T00:14:16.782Z,100139.00
2023-04-02T00:16:44.209Z,100140.00
2023-04-02T00:19:18.457Z,100132.00
2023-04-02T00:21:45.709Z,100136.00
2023-04-02T00:24:17.951Z,100151.00
2023-04-02T00:26:46.876Z,100154.00
2023-04-02T00:29:14.830Z,100141.00
2023-04-02T00:31:43.534Z,100153.00
2023-04-02T00:34:22.151Z,100147.00
2023-04-02T00:36:49.706Z,100151.00
2023-04-02T00:39:23.016Z,100154.00
2023-04-02T00:41:54.649Z,100171.00
2023-04-02T00:44:22.298Z,100169.00
2023-04-02T00:46:49.737Z,100161.00
2023-04-02T00:49:24.043Z,100177.00
2023-04-02T00:52:10.155Z,100179.00
2023-04-02T00:54:47.274Z,100184.00
2023-04-02T00:57:23.209Z,100188.00
2023-04-02T01:00:11.945Z,100188.00
2023-04-02T01:02:40.698Z,100197.00
2023-04-02T01:05:16.651Z,100197.00
2023-04-02T01:07:49.412Z,100200.00
2023-04-02T01:10:24.943Z,100195.00
2023-04-02T01:13:07.884Z,100192.00
2023-04-02T01:15:41.668Z,100212.00
2023-04-02T01:18:26.520Z,100210.00
2023-04-02T01:21:14.921Z,100217.00
2023-04-02T01:24:05.183Z,100234.00
2023-04-02T01:26:52.392Z,100230.00
2023-04-02T01:29:31.132Z,100236.00
2023-04-02T01:32:01.555Z,100234.00
2023-04-02T01:34:28.964Z,100237.00
2023-04-02T01:37:01.753Z,100242.00
2023-04-02T01:39:44.199Z,100246.00
2023-04-02T01:42:29.270Z,100255.00
2023-04-02T01:45:10.015Z,100255.00
2023-04-02T01:47:38.157Z,100255.00
2023-04-02T01:50:11.104Z,100259.00
2023-04-02T01:52:41.106Z,100250.00
2023-04-02T01:55:10.164Z,100272.00
2023-04-02T01:57:37.484Z,100274.00
2023-04-02T02:00:09.975Z,100286.00
2023-04-02T02:02:40.521Z,100292.00
2023-04-02T02:05:16.547Z,100287.00
2023-04-02T02:07:45.857Z,100288.00
2023-04-02T02:10:18.467Z,100286.00
2023-04-02T02:12:45.934Z,100309.00
2023-04-02T02:15:23.358Z,100304.00
2023-04-02T02:17:50.320Z,100312.00
2023-04-02T02:20:17.581Z,100304.00
2023-04-02T02:22:46.367Z,100314.00
2023-04-02T02:25:19.692Z,100310.00
2023-04-02T02:27:46.244Z,100332.00
2023-04-02T02:30:18.162Z,100332.00
2023-04-02T02:33:00.670Z,100334.00
2023-04-02T02:35:33.558Z,100332.00
2023-04-02T02:38:20.896Z,100347.00
2023-04-02T02:40:50.595Z,100349.00
2023-04-02T02:43:17.325Z,100357.00
2023-04-02T02:45:46.169Z,100354.00
2023-04-02T02:48:16.337Z,100364.00
2023-04-02T02:50:43.816Z,100365.00
2023-04-02T02:53:23.064Z,100376.00
2023-04-02T02:55:55.050Z,100377.00
2023-04-02T02:58:27.478Z,100394.00
2023-04-02T03:01:03.541Z,100394.00
2023-04-02T03:03:34.321Z,100395.00
2023-04-02T03:06:05.959Z,100399.00
2023-04-02T03:08:40.358Z,100405.00
2023-04-02T03:11:14.007Z,100413.00
2023-04-02T03:13:47.250Z,100414.00
2023-04-02T03:16:22.365Z,100417.00
2023-04-02T03:18:57.898Z,100426.00
2023-04-02T03:21:31.424Z,100427.00
2023-04-02T03:24:01.469Z,100431.00
2023-04-02T03:26:41.114Z,100436.00
2023-04-02T03:29:16.621Z,100434.00
2023-04-02T03:32:22.137Z,100446.00
2023-04-02T03:34:56.182Z,100444.00
2023-04-02T03:37:30.812Z,100449.00
2023-04-02T03:40:08.810Z,100454.00
2023-04-02T03:42:49.190Z,100439.00
2023-04-02T03:45:21.201Z,100447.00
2023-04-02T03:47:53.026Z,100457.00
2023-04-02T03:50:33.533Z,100463.00
2023-04-02T03:53:02.864Z,100466.00
2023-04-02T03:55:32.064Z,100473.00
2023-04-02T03:58:07.454Z,100476.00
2023-04-02T04:01:20.469Z,100489.00
2023-04-02T04:03:50.729Z,100490.00
2023-04-02T04:06:30.049Z,100497.00
2023-04-02T04:09:18.112Z,100508.00
2023-04-02T04:11:47.544Z,100502.00
2023-04-02T04:14:34.275Z,100515.00
2023-04-02T04:17:15.430Z,100519.00
2023-04-02T04:19:47.093Z,100516.00
2023-04-02T04:22:30.405Z,100536.00
2023-04-02T04:25:06.473Z,100528.00
2023-04-02T04:27:42.724Z,100532.00
2023-04-02T04:30:14.320Z,100539.00
2023-04-02T04:32:50.919Z,100551.00
2023-04-02T04:35:24.783Z,100556.00
2023-04-02T04:38:07.580Z,100549.00
2023-04-02T04:40:52.286Z,100563.00
2023-04-02T04:43:32.574Z,100562.00
2023-04-02T04:46:06.543Z,100568.00
2023-04-02T04:48:37.086Z,100565.00
2023-04-02T04:51:10.745Z,100573.00
2023-04-02T04:53:47.552Z,100583.00
2023-04-02T04:56:19.531Z,100580.00
2023-04-02T04:59:05.158Z,100587.00
2023-04-02T05:01:47.494Z,100592.00
2023-04-02T05:04:40.535Z,100593.00
2023-04-02T05:07:15.561Z,100594.00
2023-04-02T05:10:06.356Z,100602.00
2023-04-02T05:13:11.011Z,100617.00
2023-04-02T05:16:26.286Z,100622.00
2023-04-02T05:18:56.997Z,100626.00
2023-04-02T05:21:33.293Z,100625.00
2023-04-02T05:24:31.194Z,100633.00
2023-04-02T05:27:01.996Z,100635.00
2023-04-02T05:29:34.491Z,100640.00
2023-04-02T05:32:07.734Z,100639.00
2023-04-02T05:34:39.809Z,100655.00
2023-04-02T05:37:13.806Z,100660.00
2023-04-02T05:39:44.675Z,100663.00
2023-04-02T05:42:31.569Z,100644.00
2023-04-02T05:45:20.440Z,100666.00
2023-04-02T05:47:50.691Z,100669.00
2023-04-02T05:50:40.255Z,100668.00
2023-04-02T05:53:34.806Z,100689.00
2023-04-02T05:56:17.867Z,100679.00
2023-04-02T05:58:52.598Z,100689.00
2023-04-02T06:01:51.612Z,100688.00
2023-04-02T06:04:42.283Z,100690.00
2023-04-02T06:07:15.802Z,100690.00
2023-04-02T06:09:54.380Z,100708.00
2023-04-02T06:12:30.640Z,100695.00
2023-04-02T06:14:57.995Z,100687.00
2023-04-02T06:17:28.293Z,100713.00
2023-04-02T06:19:57.824Z,100706.00
2023-04-02T06:22:31.896Z,100713.00
2023-04-02T06:25:03.728Z,100714.00
2023-04-02T06:27:38.497Z,100729.00
2023-04-02T06:30:16.530Z,100735.00
2023-04-02T06:32:43.428Z,100725.00
2023-04-02T06:35:15.219Z,100735.00
2023-04-02T06:37:46.917Z,100753.00
2023-04-02T06:40:32.670Z,100753.00
2023-04-02T06:43:28.770Z,100751.00
2023-04-02T06:46:19.039Z,100770.00
2023-04-02T06:49:03.419Z,100761.00
2023-04-02T06:51:30.341Z,100779.00
2023-04-02T06:53:57.136Z,100762.00
2023-04-02T06:56:29.370Z,100778.00
2023-04-02T06:58:56.123Z,100785.00
2023-04-02T07:01:28.363Z,100797.00
2023-04-02T07:03:55.575Z,100787.00
2023-04-02T07:06:30.902Z,100790.00
2023-04-02T07:09:00.484Z,100796.00
2023-04-02T07:11:27.643Z,100795.00
2023-04-02T07:13:57.814Z,100791.00
2023-04-02T07:16:27.232Z,100815.00
2023-04-02T07:18:55.798Z,100806.00
2023-04-02T07:21:23.141Z,100814.00
2023-04-02T07:23:50.305Z,100801.00
2023-04-02T07:26:19.756Z,100811.00
2023-04-02T07:28:46.427Z,100817.00
2023-04-02T07:31:16.609Z,100808.00
2023-04-02T07:33:43.449Z,100814.00
2023-04-02T07:36:14.545Z,100816.00
2023-04-02T07:38:41.496Z,100821.00
2023-04-02T07:41:08.475Z,100801.00
2023-04-02T07:43:35.796Z,100834.00
2023-04-02T07:46:03.638Z,100831.00
2023-04-02T07:48:30.570Z,100839.00
2023-04-02T07:50:57.134Z,100850.00
2023-04-02T07:53:31.062Z,100852.00
2023-04-02T07:56:00.058Z,100856.00
2023-04-02T07:58:27.107Z,100850.00
2023-04-02T08:00:53.766Z,100858.00
2023-04-02T08:03:20.428Z,100850.00
2023-04-02T08:05:51.495Z,100866.00
2023-04-02T08:08:18.040Z,100869.00
2023-04-02T08:10:44.563Z,100875.00
2023-04-02T08:13:11.238Z,100874.00
2023-04-02T08:15:38.201Z,100876.00
2023-04-02T08:18:04.962Z,100880.00
2023-04-02T08:20:31.546Z,100887.00
2023-04-02T08:22:58.203Z,100881.00
2023-04-02T08:25:24.732Z,100894.00
2023-04-02T08:27:51.269Z,100891.00
2023-04-02T08:30:18.597Z,100887.00
2023-04-02T08:32:45.565Z,100886.00
2023-04-02T08:35:14.637Z,100897.00
2023-04-02T08:37:41.891Z,100901.00
2023-04-02T08:40:25.634Z,100912.00
2023-04-02T08:43:01.324Z,100902.00
2023-04-02T08:45:59.389Z,100926.00
2023-04-02T08:48:26.087Z,100922.00
2023-04-02T08:50:52.689Z,100926.00
2023-04-02T08:53:25.624Z,100940.00
2023-04-02T08:56:08.442Z,100938.00
2023-04-02T08:58:41.763Z,100950.00
2023-04-02T09:01:23.629Z,100950.00
2023-04-02T09:03:51.210Z,100948.00
2023-04-02T09:06:19.682Z,100957.00
2023-04-02T09:08:47.863Z,100960.00
2023-04-02T09:11:39.508Z,100968.00
2023-04-02T09:14:17.954Z,100968.00
2023-04-02T09:16:56.096Z,100975.00
2023-04-02T09:19:31.660Z,100985.00
2023-04-02T09:22:15.753Z,100983.00
2023-04-02T09:24:42.240Z,100978.00
2023-04-02T09:27:19.126Z,100976.00
2023-04-02T09:29:48.446Z,100989.00
2023-04-02T09:32:30.840Z,100994.00
2023-04-02T09:35:28.521Z,100991.00
2023-04-02T09:38:07.292Z,101013.00
2023-04-02T09:40:40.638Z,101007.00
2023-04-02T09:43:19.542Z,101015.00
2023-04-02T09:46:01.552Z,101012.00
2023-04-02T09:48:31.807Z,101024.00
2023-04-02T09:51:13.477Z,101019.00
2023-04-02T09:53:45.960Z,101024.00
2023-04-02T09:56:14.456Z,101022.00
2023-04-02T09:58:42.432Z,101031.00
2023-04-02T10:01:28.035Z,101025.00
2023-04-02T10:03:55.527Z,101011.00
2023-04-02T10:06:22.213Z,101032.00
2023-04-02T10:08:48.716Z,101043.00
2023-04-02T10:11:22.970Z,101043.00
2023-04-02T10:14:01.973Z,101050.00
2023-04-02T10:16:42.106Z,101061.00
2023-04-02T10:19:36.199Z,101052.00
2023-04-02T10:22:19.132Z,101067.00
2023-04-02T10:24:46.159Z,101069.00
2023-04-02T10:27:25.689Z,101064.00
2023-04-02T10:30:21.928Z,101065.00
2023-04-02T10:33:09.634Z,101060.00
2023-04-02T10:35:52.598Z,101065.00
2023-04-02T10:38:45.327Z,101073.00
2023-04-02T10:41:39.831Z,101078.00
2023-04-02T10:44:20.269Z,101082.00
2023-04-02T10:47:02.382Z,101081.00
2023-04-02T10:49:47.908Z,101089.00
2023-04-02T10:52:22.942Z,101082.00
2023-04-02T10:54:51.816Z,101104.00
2023-04-02T10:57:31.238Z,101109.00
2023-04-02T11:00:10.787Z,101100.00
2023-04-02T11:02:56.731Z,101105.00
2023-04-02T11:05:27.975Z,101113.00
2023-04-02T11:08:29.433Z,101116.00
2023-04-02T11:10:59.030Z,101122.00
2023-04-02T11:13:26.470Z,101120.00
2023-04-02T11:15:53.819Z,101130.00
2023-04-02T11:18:38.572Z,101127.00
2023-04-02T11:21:07.799Z,101142.00
2023-04-02T11:23:36.758Z,101150.00
2023-04-02T11:26:29.765Z,101141.00
2023-04-02T11:29:15.611Z,101151.00
2023-04-02T11:31:43.380Z,101160.00
2023-04-02T11:34:41.350Z,101164.00
2023-04-02T11:37:10.686Z,101164.00
2023-04-02T11:39:53.897Z,101170.00
2023-04-02T11:42:34.604Z,101162.00
2023-04-02T11:45:23.946Z,101161.00
2023-04-02T11:47:59.707Z,101177.00
2023-04-02T11:50:36.306Z,101171.00
2023-04-02T11:53:04.748Z,101169.00
2023-04-02T11:55:35.886Z,101192.00
2023-04-02T11:58:13.562Z,101185.00
2023-04-02T12:00:42.069Z,101188.00
2023-04-02T12:03:16.165Z,101185.00
2023-04-02T12:05:54.518Z,101192.00
2023-04-02T12:08:24.840Z,101187.00
2023-04-02T12:10:59.809Z,101190.00
2023-04-02T12:13:41.408Z,101196.00
2023-04-02T12:16:11.915Z,101181.00
2023-04-02T12:18:51.176Z,101187.00
2023-04-02T12:21:20.339Z,101194.00
2023-04-02T12:23:47.896Z,101191.00
2023-04-02T12:26:37.370Z,101199.00
2023-04-02T12:29:22.782Z,101200.00
2023-04-02T12:31:49.366Z,101202.00
2023-04-02T12:34:18.019Z,101205.00
2023-04-02T12:37:02.879Z,101209.00
2023-04-02T12:39:31.233Z,101216.00
2023-04-02T12:41:57.837Z,101208.00
2023-04-02T12:44:29.834Z,101214.00
2023-04-02T12:46:57.132Z,101195.00
2023-04-02T12:49:40.387Z,101206.00
2023-04-02T12:52:12.578Z,101210.00
2023-04-02T12:54:48.609Z,101188.00
2023-04-02T12:57:30.273Z,101210.00
2023-04-02T13:00:01.632Z,101213.00
2023-04-02T13:02:31.766Z,101201.00
2023-04-02T13:05:03.208Z,101210.00
2023-04-02T13:07:32.006Z,101194.00
2023-04-02T13:10:23.010Z,101214.00
2023-04-02T13:12:58.140Z,101214.00
2023-04-02T13:15:32.962Z,101229.00
2023-04-02T13:18:18.962Z,101224.00
2023-04-02T13:21:14.695Z,101223.00
2023-04-02T13:23:41.318Z,101221.00
2023-04-02T13:26:25.749Z,101223.00
2023-04-02T13:29:21.681Z,101223.00
2023-04-02T13:31:48.899Z,101223.00
2023-04-02T13:34:15.413Z,101233.00
2023-04-02T13:36:41.871Z,101218.00
2023-04-02T13:39:08.457Z,101241.00
2023-04-02T13:41:40.344Z,101239.00
2023-04-02T13:44:06.885Z,101241.00
2023-04-02T13:46:34.724Z,101238.00
2023-04-02T13:49:01.526Z,101237.00
2023-04-02T13:51:37.662Z,101235.00
2023-04-02T13:54:25.766Z,101238.00
2023-04-02T13:56:52.658Z,101245.00
2023-04-02T13:59:19.244Z,101243.00
2023-04-02T14:01:47.206Z,101242.00
2023-04-02T14:04:20.955Z,101244.00
2023-04-02T14:07:05.978Z,101251.00
2023-04-02T14:10:07.641Z,101247.00
2023-04-02T14:13:00.269Z,101250.00
2023-04-02T14:15:52.436Z,101251.00
2023-04-02T14:18:21.743Z,101244.00
2023-04-02T14:21:17.320Z,101258.00
2023-04-02T14:24:00.288Z,101264.00
2023-04-02T14:26:43.872Z,101267.00
2023-04-02T14:29:13.291Z,101271.00
2023-04-02T14:31:56.960Z,101264.00
2023-04-02T14:34:48.363Z,101276.00
2023-04-02T14:37:18.556Z,101276.00
2023-04-02T14:40:17.577Z,101274.00
2023-04-02T14:43:00.339Z,101291.00
2023-04-02T14:45:49.055Z,101289.00
2023-04-02T14:48:39.948Z,101278.00
2023-04-02T14:51:43.844Z,101282.00
2023-04-02T14:54:21.183Z,101277.00
2023-04-02T14:56:51.847Z,101300.00
2023-04-02T14:59:27.700Z,101297.00
2023-04-02T15:02:01.871Z,101303.00
2023-04-02T15:04:37.012Z,101302.00
2023-04-02T15:07:12.103Z,101313.00
2023-04-02T15:09:42.808Z,101303.00
2023-04-02T15:12:14.681Z,101292.00
2023-04-02T15:14:44.682Z,101285.00
2023-04-02T15:17:12.435Z,101302.00
2023-04-02T15:19:39.666Z,101319.00
2023-04-02T15:22:43.821Z,101324.00
2023-04-02T15:25:31.974Z,101324.00
2023-04-02T15:28:22.545Z,101330.00
2023-04-02T15:30:57.083Z,101326.00
2023-04-02T15:33:38.706Z,101337.00
2023-04-02T15:36:31.350Z,101345.00
2023-04-02T15:39:25.836Z,101344.00
2023-04-02T15:42:20.326Z,101350.00
2023-04-02T15:44:55.975Z,101358.00
2023-04-02T15:47:36.302Z,101357.00
2023-04-02T15:50:21.925Z,101367.00
2023-04-02T15:52:55.854Z,101366.00
2023-04-02T15:55:26.427Z,101359.00
2023-04-02T15:58:22.123Z,101367.00
2023-04-02T16:01:01.757Z,101382.00
2023-04-02T16:03:47.306Z,101381.00
2023-04-02T16:06:28.945Z,101382.00
2023-04-02T16:09:23.762Z,101394.00
2023-04-02T16:12:09.108Z,101393.00
2023-04-02T16:14:37.250Z,101405.00
2023-04-02T16:17:21.520Z,101407.00
2023-04-02T16:20:16.552Z,101393.00
2023-04-02T16:22:59.459Z,101403.00
2023-04-02T16:25:30.783Z,101407.00
2023-04-02T16:28:12.903Z,101420.00
2023-04-02T16:30:45.693Z,101413.00
2023-04-02T16:33:41.334Z,101416.00
2023-04-02T16:36:14.357Z,101422.00
2023-04-02T16:39:02.087Z,101437.00
2023-04-02T16:41:40.193Z,101431.00
2023-04-02T16:44:28.739Z,101441.00
2023-04-02T16:47:01.704Z,101448.00
2023-04-02T16:49:38.502Z,101448.00
2023-04-02T16:52:23.235Z,101456.00
2023-04-02T16:55:05.978Z,101456.00
2023-04-02T16:57:48.077Z,101465.00
2023-04-02T17:00:17.989Z,101468.00
2023-04-02T17:02:56.626Z,101471.00
2023-04-02T17:05:34.177Z,101471.00
2023-04-02T17:08:17.670Z,101475.00
2023-04-02T17:10:56.465Z,101487.00
2023-04-02T17:13:30.133Z,101487.00
2023-04-02T17:16:05.055Z,101494.00
2023-04-02T17:18:33.116Z,101489.00
2023-04-02T17:21:05.970Z,101494.00
2023-04-02T17:23:55.298Z,101478.00
2023-04-02T17:26:26.962Z,101492.00
2023-04-02T17:28:54.986Z,101506.00
2023-04-02T17:31:33.939Z,101506.00
2023-04-02T17:34:08.906Z,101510.00
2023-04-02T17:36:44.142Z,101510.00
2023-04-02T17:39:22.241Z,101521.00
2023-04-02T17:41:56.457Z,101526.00
2023-04-02T17:44:41.329Z,101519.00
2023-04-02T17:47:21.028Z,101525.00
2023-04-02T17:50:12.402Z,101543.00
2023-04-02T17:52:44.537Z,101550.00
2023-04-02T17:55:29.827Z,101544.00
2023-04-02T17:58:09.697Z,101556.00
2023-04-02T18:01:01.054Z,101546.00
2023-04-02T18:03:47.625Z,101550.00
2023-04-02T18:06:19.562Z,101558.00
2023-04-02T18:08:58.280Z,101562.00
2023-04-02T18:11:33.816Z,101567.00
2023-04-02T18:14:11.851Z,101569.00
2023-04-02T18:17:06.346Z,101576.00
2023-04-02T18:19:44.973Z,101574.00
2023-04-02T18:22:16.780Z,101588.00
2023-04-02T18:24:52.185Z,101586.00
2023-04-02T18:27:44.207Z,101596.00
2023-04-02T18:30:43.662Z,101599.00
2023-04-02T18:33:22.352Z,101599.00
2023-04-02T18:35:59.630Z,101605.00
2023-04-02T18:38:46.649Z,101613.00
2023-04-02T18:41:44.038Z,101620.00
2023-04-02T18:44:32.100Z,101620.00
2023-04-02T18:47:22.640Z,101631.00
2023-04-02T18:50:24.419Z,101634.00
2023-04-02T18:52:51.258Z,101635.00
2023-04-02T18:55:23.021Z,101636.00
2023-04-02T18:57:53.068Z,101643.00
2023-04-02T19:00:26.380Z,101649.00
2023-04-02T19:02:56.462Z,101655.00
2023-04-02T19:05:24.219Z,101655.00
2023-04-02T19:08:05.007Z,101663.00
2023-04-02T19:10:37.748Z,101660.00
2023-04-02T19:13:18.652Z,101671.00
2023-04-02T19:15:52.771Z,101670.00
2023-04-02T19:18:57.161Z,101682.00
2023-04-02T19:21:54.457Z,101682.00
2023-04-02T19:24:27.176Z,101686.00
2023-04-02T19:27:07.255Z,101689.00
2023-04-02T19:30:09.682Z,101699.00
2023-04-02T19:32:36.476Z,101703.00
2023-04-02T19:35:06.377Z,101695.00
2023-04-02T19:37:32.916Z,101698.00
2023-04-02T19:40:15.170Z,101710.00
2023-04-02T19:42:54.955Z,101710.00
2023-04-02T19:45:24.182Z,101721.00
2023-04-02T19:47:51.212Z,101720.00
2023-04-02T19:50:17.868Z,101722.00
2023-04-02T19:52:44.650Z,101720.00
2023-04-02T19:55:11.261Z,101719.00
2023-04-02T19:57:37.956Z,101723.00
2023-04-02T20:00:09.345Z,101732.00
2023-04-02T20:02:38.665Z,101729.00
2023-04-02T20:05:05.939Z,101739.00
2023-04-02T20:07:32.628Z,101743.00
2023-04-02T20:09:59.168Z,101753.00
2023-04-02T20:12:26.013Z,101750.00
2023-04-02T20:14:52.985Z,101740.00
2023-04-02T20:17:19.499Z,101749.00
2023-04-02T20:19:46.228Z,101756.00
2023-04-02T20:22:12.792Z,101747.00
2023-04-02T20:24:40.869Z,101755.00
2023-04-02T20:27:07.515Z,101760.00
2023-04-02T20:29:34.138Z,101764.00
2023-04-02T20:32:00.655Z,101761.00
2023-04-02T20:34:27.439Z,101749.00
2023-04-02T20:36:54.163Z,101767.00
2023-04-02T20:39:21.408Z,101767.00
2023-04-02T20:41:48.315Z,101776.00
2023-04-02T20:44:15.841Z,101784.00
2023-04-02T20:46:42.438Z,101785.00
2023-04-02T20:49:09.198Z,101791.00
2023-04-02T20:51:36.056Z,101787.00
2023-04-02T20:54:03.003Z,101793.00
2023-04-02T20:56:29.548Z,101790.00
2023-04-02T20:58:56.337Z,101799.00
2023-04-02T21:01:28.157Z,101797.00
2023-04-02T21:03:59.404Z,101808.00
2023-04-02T21:06:31.382Z,101799.00
2023-04-02T21:08:58.163Z,101806.00
2023-04-02T21:11:26.090Z,101808.00
2023-04-02T21:13:52.913Z,101819.00
2023-04-02T21:16:21.970Z,101822.00
2023-04-02T21:18:50.438Z,101827.00
2023-04-02T21:21:17.609Z,101826.00
2023-04-02T21:23:45.253Z,101829.00
2023-04-02T21:26:14.903Z,101822.00
2023-04-02T21:28:41.872Z,101826.00
2023-04-02T21:31:11.283Z,101833.00
2023-04-02T21:33:43.559Z,101832.00
2023-04-02T21:36:12.409Z,101838.00
2023-04-02T21:38:46.018Z,101841.00
2023-04-02T21:41:18.739Z,101839.00
2023-04-02T21:43:48.631Z,101849.00
2023-04-02T21:46:23.555Z,101839.00
2023-04-02T21:48:51.310Z,101847.00
2023-04-02T21:51:21.048Z,101852.00
2023-04-02T21:53:48.000Z,101853.00
2023-04-02T21:56:16.757Z,101858.00
2023-04-02T21:58:43.856Z,101858.00
2023-04-02T22:01:20.214Z,101870.00
2023-04-02T22:03:53.939Z,101865.00
2023-04-02T22:06:22.180Z,101859.00
2023-04-02T22:08:54.403Z,101863.00
2023-04-02T22:11:23.631Z,101879.00
2023-04-02T22:13:50.995Z,101870.00
2023-04-02T22:16:20.585Z,101875.00
2023-04-02T22:18:47.916Z,101881.00
2023-04-02T22:21:15.327Z,101882.00
2023-04-02T22:23:44.775Z,101869.00
2023-04-02T22:26:12.515Z,101884.00
2023-04-02T22:28:39.123Z,101885.00
2023-04-02T22:31:17.481Z,101878.00
2023-04-02T22:33:45.330Z,101898.00
2023-04-02T22:36:12.596Z,101900.00
2023-04-02T22:38:39.318Z,101885.00
2023-04-02T22:41:18.228Z,101903.00
2023-04-02T22:43:45.683Z,101894.00
2023-04-02T22:46:14.630Z,101902.00
2023-04-02T22:48:41.471Z,101902.00
2023-04-02T22:51:10.535Z,101905.00
2023-04-02T22:53:37.941Z,101905.00
2023-04-02T22:56:09.277Z,101916.00
2023-04-02T22:58:36.507Z,101917.00
2023-04-02T23:01:16.588Z,101913.00
2023-04-02T23:03:43.465Z,101920.00
2023-04-02T23:06:12.412Z,101931.00
2023-04-02T23:08:39.906Z,101926.00
2023-04-02T23:11:09.321Z,101925.00
2023-04-02T23:13:38.047Z,101926.00
2023-04-02T23:16:07.034Z,101928.00
2023-04-02T23:18:34.983Z,101925.00
2023-04-02T23:21:02.047Z,101934.00
2023-04-02T23:23:28.691Z,101936.00
2023-04-02T23:26:09.208Z,101922.00
2023-04-02T23:28:36.611Z,101925.00
2023-04-02T23:31:04.832Z,101931.00
2023-04-02T23:33:31.427Z,101937.00
2023-04-02T23:35:58.382Z,101932.00
2023-04-02T23:38:25.517Z,101922.00
2023-04-02T23:40:53.504Z,101941.00
2023-04-02T23:43:20.185Z,101943.00
2023-04-02T23:45:48.916Z,101940.00
2023-04-02T23:48:16.011Z,101943.00
2023-04-02T23:50:44.441Z,101940.00
2023-04-02T23:53:11.842Z,101951.00
2023-04-02T23:55:38.466Z,101948.00
2023-04-02T23:58:05.204Z,101949.00
